sensor_id;sensor_type;location;lat;lon;timestamp;pressure;altitude;pressure_sealevel;temperature;humidity
75013;BME280;63567;49.956;20.130;2023-11-21T00:00:08;96193.50;;;8.89;100.00
75013;BME280;63567;49.956;20.130;2023-11-21T00:02:37;96187.47;;;8.88;100.00
75013;BME280;63567;49.956;20.130;2023-11-21T00:05:06;96191.09;;;8.87;100.00
75013;BME280;63567;49.956;20.130;2023-11-21T00:07:33;96191.09;;;8.87;100.00
75013;BME280;63567;49.956;20.130;2023-11-21T00:09:58;96195.53;;;8.87;100.00
75013;BME280;63567;49.956;20.130;2023-11-21T00:12:24;96191.28;;;8.86;100.00
75013;BME280;63567;49.956;20.130;2023-11-21T00:14:50;96195.13;;;8.83;100.00
75013;BME280;63567;49.956;20.130;2023-11-21T00:17:15;96195.94;;;8.83;100.00
75013;BME280;63567;49.956;20.130;2023-11-21T00:19:40;96198.75;;;8.82;100.00
75013;BME280;63567;49.956;20.130;2023-11-21T00:22:08;96204.41;;;8.79;100.00
75013;BME280;63567;49.956;20.130;2023-11-21T00:24:34;96204.59;;;8.77;100.00
75013;BME280;63567;49.956;20.130;2023-11-21T00:26:59;96202.16;;;8.76;100.00
75013;BME280;63567;49.956;20.130;2023-11-21T00:29:25;96206.63;;;8.75;100.00
75013;BME280;63567;49.956;20.130;2023-11-21T00:31:51;96203.78;;;8.77;100.00
75013;BME280;63567;49.956;20.130;2023-11-21T00:34:16;96215.28;;;8.76;100.00
75013;BME280;63567;49.956;20.130;2023-11-21T00:36:41;96216.31;;;8.75;100.00
75013;BME280;63567;49.956;20.130;2023-11-21T00:39:07;96211.06;;;8.75;100.00
75013;BME280;63567;49.956;20.130;2023-11-21T00:41:32;96206.63;;;8.75;100.00
75013;BME280;63567;49.956;20.130;2023-11-21T00:43:58;96218.13;;;8.74;100.00
75013;BME280;63567;49.956;20.130;2023-11-21T00:46:24;96215.50;;;8.74;100.00
75013;BME280;63567;49.956;20.130;2023-11-21T00:48:52;96203.97;;;8.75;100.00
75013;BME280;63567;49.956;20.130;2023-11-21T00:51:19;96205.63;;;8.76;100.00
75013;BME280;63567;49.956;20.130;2023-11-21T00:53:44;96203.00;;;8.76;100.00
75013;BME280;63567;49.956;20.130;2023-11-21T00:56:10;96200.56;;;8.75;100.00
75013;BME280;63567;49.956;20.130;2023-11-21T00:58:35;96206.44;;;8.77;100.00
75013;BME280;63567;49.956;20.130;2023-11-21T01:01:00;96196.91;;;8.76;100.00
75013;BME280;63567;49.956;20.130;2023-11-21T01:03:26;96203.38;;;8.80;100.00
75013;BME280;63567;49.956;20.130;2023-11-21T01:05:51;96204.59;;;8.77;100.00
75013;BME280;63567;49.956;20.130;2023-11-21T01:08:16;96200.16;;;8.78;100.00
75013;BME280;63567;49.956;20.130;2023-11-21T01:10:41;96204.41;;;8.79;100.00
75013;BME280;63567;49.956;20.130;2023-11-21T01:13:07;96201.78;;;8.79;100.00
75013;BME280;63567;49.956;20.130;2023-11-21T01:15:33;96203.59;;;8.78;100.00
75013;BME280;63567;49.956;20.130;2023-11-21T01:17:59;96207.84;;;8.79;100.00
75013;BME280;63567;49.956;20.130;2023-11-21T01:20:24;96205.22;;;8.79;100.00
75013;BME280;63567;49.956;20.130;2023-11-21T01:22:49;96205.03;;;8.81;100.00
75013;BME280;63567;49.956;20.130;2023-11-21T01:25:15;96193.91;;;8.79;100.00
75013;BME280;63567;49.956;20.130;2023-11-21T01:27:41;96195.72;;;8.78;100.00
75013;BME280;63567;49.956;20.130;2023-11-21T01:30:07;96198.13;;;8.80;100.00
75013;BME280;63567;49.956;20.130;2023-11-21T01:32:34;96199.16;;;8.79;100.00
75013;BME280;63567;49.956;20.130;2023-11-21T01:35:00;96200.97;;;8.78;100.00
75013;BME280;63567;49.956;20.130;2023-11-21T01:37:25;96194.91;;;8.78;100.00
75013;BME280;63567;49.956;20.130;2023-11-21T01:39:53;96203.59;;;8.78;100.00
75013;BME280;63567;49.956;20.130;2023-11-21T01:42:20;96204.59;;;8.77;100.00
75013;BME280;63567;49.956;20.130;2023-11-21T01:44:46;96207.03;;;8.79;100.00
75013;BME280;63567;49.956;20.130;2023-11-21T01:47:13;96204.59;;;8.77;100.00
75013;BME280;63567;49.956;20.130;2023-11-21T01:49:38;96204.41;;;8.79;100.00
75013;BME280;63567;49.956;20.130;2023-11-21T01:52:04;96201.34;;;8.75;100.00
75013;BME280;63567;49.956;20.130;2023-11-21T01:54:30;96208.03;;;8.78;100.00
75013;BME280;63567;49.956;20.130;2023-11-21T01:57:00;96201.34;;;8.75;100.00
75013;BME280;63567;49.956;20.130;2023-11-21T01:59:35;96199.16;;;8.72;100.00
75013;BME280;63567;49.956;20.130;2023-11-21T02:02:05;96201.56;;;8.74;100.00
75013;BME280;63567;49.956;20.130;2023-11-21T02:04:34;96198.13;;;8.73;100.00
75013;BME280;63567;49.956;20.130;2023-11-21T02:07:00;96192.88;;;8.73;100.00
75013;BME280;63567;49.956;20.130;2023-11-21T02:09:27;96197.13;;;8.74;100.00
75013;BME280;63567;49.956;20.130;2023-11-21T02:11:53;96195.50;;;8.73;100.00
75013;BME280;63567;49.956;20.130;2023-11-21T02:14:19;96196.28;;;8.74;100.00
75013;BME280;63567;49.956;20.130;2023-11-21T02:16:47;96197.31;;;8.73;100.00
75013;BME280;63567;49.956;20.130;2023-11-21T02:19:17;96199.75;;;8.74;100.00
75013;BME280;63567;49.956;20.130;2023-11-21T02:21:45;96209.44;;;8.74;100.00
75013;BME280;63567;49.956;20.130;2023-11-21T02:24:10;96207.63;;;8.74;100.00
75013;BME280;63567;49.956;20.130;2023-11-21T02:26:36;96206.81;;;8.74;100.00
75013;BME280;63567;49.956;20.130;2023-11-21T02:29:01;96207.22;;;8.71;100.00
75013;BME280;63567;49.956;20.130;2023-11-21T02:31:29;96210.03;;;8.69;100.00
75013;BME280;63567;49.956;20.130;2023-11-21T02:33:55;96210.03;;;8.69;100.00
75013;BME280;63567;49.956;20.130;2023-11-21T02:36:20;96199.53;;;8.69;100.00
75013;BME280;63567;49.956;20.130;2023-11-21T02:38:47;96212.66;;;8.69;100.00
75013;BME280;63567;49.956;20.130;2023-11-21T02:41:12;96197.72;;;8.70;100.00
75013;BME280;63567;49.956;20.130;2023-11-21T02:43:38;96197.72;;;8.70;100.00
75013;BME280;63567;49.956;20.130;2023-11-21T02:46:04;96210.25;;;8.68;100.00
75013;BME280;63567;49.956;20.130;2023-11-21T02:48:29;96209.41;;;8.67;100.00
75013;BME280;63567;49.956;20.130;2023-11-21T02:50:56;96205.97;;;8.67;100.00
75013;BME280;63567;49.956;20.130;2023-11-21T02:53:21;96207.00;;;8.66;100.00
75013;BME280;63567;49.956;20.130;2023-11-21T02:55:46;96210.44;;;8.66;100.00
75013;BME280;63567;49.956;20.130;2023-11-21T02:58:12;96209.81;;;8.64;100.00
75013;BME280;63567;49.956;20.130;2023-11-21T03:00:37;96214.25;;;8.63;100.00
75013;BME280;63567;49.956;20.130;2023-11-21T03:03:02;96223.94;;;8.63;100.00
75013;BME280;63567;49.956;20.130;2023-11-21T03:05:29;96228.38;;;8.62;100.00
75013;BME280;63567;49.956;20.130;2023-11-21T03:07:54;96227.38;;;8.63;100.00
75013;BME280;63567;49.956;20.130;2023-11-21T03:10:20;96225.75;;;8.62;100.00
75013;BME280;63567;49.956;20.130;2023-11-21T03:12:45;96225.75;;;8.62;100.00
75013;BME280;63567;49.956;20.130;2023-11-21T03:15:11;96232.81;;;8.62;100.00
75013;BME280;63567;49.956;20.130;2023-11-21T03:17:36;96234.03;;;8.59;100.00
75013;BME280;63567;49.956;20.130;2023-11-21T03:20:02;96216.63;;;8.58;100.00
75013;BME280;63567;49.956;20.130;2023-11-21T03:22:28;96222.72;;;8.59;100.00
75013;BME280;63567;49.956;20.130;2023-11-21T03:24:54;96225.53;;;8.57;100.00
75013;BME280;63567;49.956;20.130;2023-11-21T03:27:19;96232.59;;;8.57;100.00
75013;BME280;63567;49.956;20.130;2023-11-21T03:29:45;96230.97;;;8.56;100.00
75013;BME280;63567;49.956;20.130;2023-11-21T03:32:12;96221.88;;;8.52;100.00
75013;BME280;63567;49.956;20.130;2023-11-21T03:34:53;96218.84;;;8.48;100.00
75013;BME280;63567;49.956;20.130;2023-11-21T03:37:19;96219.66;;;8.49;100.00
75013;BME280;63567;49.956;20.130;2023-11-21T03:39:46;96231.75;;;8.50;100.00
75013;BME280;63567;49.956;20.130;2023-11-21T03:42:11;96223.88;;;8.50;100.00
75013;BME280;63567;49.956;20.130;2023-11-21T03:44:36;96230.94;;;8.49;100.00
75013;BME280;63567;49.956;20.130;2023-11-21T03:47:01;96227.53;;;8.49;100.00
75013;BME280;63567;49.956;20.130;2023-11-21T03:49:27;96231.13;;;8.48;100.00
75013;BME280;63567;49.956;20.130;2023-11-21T03:51:54;96232.34;;;8.45;100.00
75013;BME280;63567;49.956;20.130;2023-11-21T03:54:20;96237.59;;;8.45;99.75
75013;BME280;63567;49.956;20.130;2023-11-21T03:56:45;96233.13;;;8.46;99.82
75013;BME280;63567;49.956;20.130;2023-11-21T03:59:10;96234.16;;;8.45;100.00
75013;BME280;63567;49.956;20.130;2023-11-21T04:01:36;96228.28;;;8.42;99.94
75013;BME280;63567;49.956;20.130;2023-11-21T04:04:02;96236.16;;;8.42;100.00
75013;BME280;63567;49.956;20.130;2023-11-21T04:06:27;96227.50;;;8.42;99.86
75013;BME280;63567;49.956;20.130;2023-11-21T04:08:53;96234.56;;;8.41;99.99
75013;BME280;63567;49.956;20.130;2023-11-21T04:11:18;96227.69;;;8.40;100.00
75013;BME280;63567;49.956;20.130;2023-11-21T04:13:43;96234.72;;;8.40;100.00
75013;BME280;63567;49.956;20.130;2023-11-21T04:16:09;96234.72;;;8.40;99.87
75013;BME280;63567;49.956;20.130;2023-11-21T04:18:38;96236.72;;;8.38;99.95
75013;BME280;63567;49.956;20.130;2023-11-21T04:21:05;96241.97;;;8.38;99.83
75013;BME280;63567;49.956;20.130;2023-11-21T04:23:30;96237.72;;;8.37;99.49
75013;BME280;63567;49.956;20.130;2023-11-21T04:25:57;96252.66;;;8.36;99.89
75013;BME280;63567;49.956;20.130;2023-11-21T04:28:23;96247.41;;;8.36;100.00
75013;BME280;63567;49.956;20.130;2023-11-21T04:30:49;96244.16;;;8.34;99.32
75013;BME280;63567;49.956;20.130;2023-11-21T04:33:15;96248.41;;;8.35;99.46
75013;BME280;63567;49.956;20.130;2023-11-21T04:35:41;96245.19;;;8.33;99.75
75013;BME280;63567;49.956;20.130;2023-11-21T04:38:06;96244.16;;;8.34;99.47
75013;BME280;63567;49.956;20.130;2023-11-21T04:40:31;96252.03;;;8.34;99.49
75013;BME280;63567;49.956;20.130;2023-11-21T04:42:57;96255.47;;;8.35;99.60
75013;BME280;63567;49.956;20.130;2023-11-21T04:45:22;96249.41;;;8.34;99.44
75013;BME280;63567;49.956;20.130;2023-11-21T04:47:48;96262.53;;;8.34;99.83
75013;BME280;63567;49.956;20.130;2023-11-21T04:50:13;96255.47;;;8.35;99.22
75013;BME280;63567;49.956;20.130;2023-11-21T04:52:38;96258.28;;;8.33;99.59
75013;BME280;63567;49.956;20.130;2023-11-21T04:55:04;96260.13;;;8.33;99.37
75013;BME280;63567;49.956;20.130;2023-11-21T04:57:31;96261.91;;;8.32;99.37
75013;BME280;63567;49.956;20.130;2023-11-21T04:59:57;96269.59;;;8.34;99.20
75013;BME280;63567;49.956;20.130;2023-11-21T05:02:22;96255.06;;;8.31;99.20
75013;BME280;63567;49.956;20.130;2023-11-21T05:04:48;96261.09;;;8.32;99.11
75013;BME280;63567;49.956;20.130;2023-11-21T05:07:13;96259.50;;;8.31;99.30
75013;BME280;63567;49.956;20.130;2023-11-21T05:09:42;96259.06;;;8.27;99.72
75013;BME280;63567;49.956;20.130;2023-11-21T05:12:09;96264.13;;;8.29;99.18
75013;BME280;63567;49.956;20.130;2023-11-21T05:14:34;96268.75;;;8.27;99.31
75013;BME280;63567;49.956;20.130;2023-11-21T05:17:00;96260.25;;;8.25;99.11
75013;BME280;63567;49.956;20.130;2023-11-21T05:19:26;96270.94;;;8.23;99.96
75013;BME280;63567;49.956;20.130;2023-11-21T05:21:52;96272.75;;;8.22;99.93
75013;BME280;63567;49.956;20.130;2023-11-21T05:24:17;96266.72;;;8.22;99.94
75013;BME280;63567;49.956;20.130;2023-11-21T05:26:42;96267.50;;;8.22;99.64
75013;BME280;63567;49.956;20.130;2023-11-21T05:29:08;96286.06;;;8.21;99.90
75013;BME280;63567;49.956;20.130;2023-11-21T05:31:36;96278.38;;;8.19;100.00
75013;BME280;63567;49.956;20.130;2023-11-21T05:34:01;96287.25;;;8.18;99.81
75013;BME280;63567;49.956;20.130;2023-11-21T05:36:26;96293.31;;;8.19;99.84
75013;BME280;63567;49.956;20.130;2023-11-21T05:38:52;96289.09;;;8.18;99.91
75013;BME280;63567;49.956;20.130;2023-11-21T05:41:17;96296.94;;;8.18;99.99
75013;BME280;63567;49.956;20.130;2023-11-21T05:43:42;96297.56;;;8.20;99.88
75013;BME280;63567;49.956;20.130;2023-11-21T05:46:08;96294.50;;;8.16;100.00
75013;BME280;63567;49.956;20.130;2023-11-21T05:48:34;96294.34;;;8.18;99.96
75013;BME280;63567;49.956;20.130;2023-11-21T05:51:03;96298.34;;;8.14;99.74
75013;BME280;63567;49.956;20.130;2023-11-21T05:53:29;96305.41;;;8.13;99.99
75013;BME280;63567;49.956;20.130;2023-11-21T05:55:55;96307.19;;;8.13;100.00
75013;BME280;63567;49.956;20.130;2023-11-21T05:58:20;96306.19;;;8.14;100.00
75013;BME280;63567;49.956;20.130;2023-11-21T06:00:45;96306.38;;;8.12;100.00
75013;BME280;63567;49.956;20.130;2023-11-21T06:03:11;96313.44;;;8.12;100.00
75013;BME280;63567;49.956;20.130;2023-11-21T06:05:37;96307.19;;;8.13;100.00
75013;BME280;63567;49.956;20.130;2023-11-21T06:08:03;96309.00;;;8.12;100.00
75013;BME280;63567;49.956;20.130;2023-11-21T06:10:28;96309.63;;;8.14;100.00
75013;BME280;63567;49.956;20.130;2023-11-21T06:12:53;96312.25;;;8.14;100.00
75013;BME280;63567;49.956;20.130;2023-11-21T06:15:19;96313.28;;;8.13;100.00
75013;BME280;63567;49.956;20.130;2023-11-21T06:17:46;96314.88;;;8.14;100.00
75013;BME280;63567;49.956;20.130;2023-11-21T06:20:15;96317.50;;;8.14;100.00
75013;BME280;63567;49.956;20.130;2023-11-21T06:22:42;96320.13;;;8.14;100.00
75013;BME280;63567;49.956;20.130;2023-11-21T06:25:08;96317.50;;;8.14;100.00
75013;BME280;63567;49.956;20.130;2023-11-21T06:27:38;96321.13;;;8.13;100.00
75013;BME280;63567;49.956;20.130;2023-11-21T06:30:05;96321.72;;;8.15;100.00
75013;BME280;63567;49.956;20.130;2023-11-21T06:32:31;96328.63;;;8.16;100.00
75013;BME280;63567;49.956;20.130;2023-11-21T06:34:56;96334.66;;;8.17;100.00
75013;BME280;63567;49.956;20.130;2023-11-21T06:37:26;96334.66;;;8.17;100.00
75013;BME280;63567;49.956;20.130;2023-11-21T06:39:52;96339.91;;;8.17;100.00
75013;BME280;63567;49.956;20.130;2023-11-21T06:42:18;96341.72;;;8.16;100.00
75013;BME280;63567;49.956;20.130;2023-11-21T06:44:45;96345.97;;;8.17;100.00
75013;BME280;63567;49.956;20.130;2023-11-21T06:47:10;96336.31;;;8.18;100.00
75013;BME280;63567;49.956;20.130;2023-11-21T06:49:36;96339.72;;;8.18;100.00
75013;BME280;63567;49.956;20.130;2023-11-21T06:52:01;96344.19;;;8.18;100.00
75013;BME280;63567;49.956;20.130;2023-11-21T06:54:28;96351.84;;;8.19;100.00
75013;BME280;63567;49.956;20.130;2023-11-21T06:56:54;96340.94;;;8.16;100.00
75013;BME280;63567;49.956;20.130;2023-11-21T06:59:21;96347.78;;;8.17;100.00
75013;BME280;63567;49.956;20.130;2023-11-21T07:01:47;96349.41;;;8.18;100.00
75013;BME280;63567;49.956;20.130;2023-11-21T07:04:12;96352.22;;;8.16;100.00
75013;BME280;63567;49.956;20.130;2023-11-21T07:06:38;96355.66;;;8.17;100.00
75013;BME280;63567;49.956;20.130;2023-11-21T07:09:03;96348.59;;;8.17;100.00
75013;BME280;63567;49.956;20.130;2023-11-21T07:11:29;96355.66;;;8.17;100.00
75013;BME280;63567;49.956;20.130;2023-11-21T07:13:54;96356.28;;;8.19;100.00
75013;BME280;63567;49.956;20.130;2023-11-21T07:16:19;96359.69;;;8.19;100.00
75013;BME280;63567;49.956;20.130;2023-11-21T07:18:45;96365.78;;;8.20;100.00
75013;BME280;63567;49.956;20.130;2023-11-21T07:21:10;96364.78;;;8.21;100.00
75013;BME280;63567;49.956;20.130;2023-11-21T07:23:40;96367.22;;;8.22;100.00
75013;BME280;63567;49.956;20.130;2023-11-21T07:26:06;96375.09;;;8.22;100.00
75013;BME280;63567;49.956;20.130;2023-11-21T07:28:34;96372.47;;;8.22;100.00
75013;BME280;63567;49.956;20.130;2023-11-21T07:31:00;96375.88;;;8.23;100.00
75013;BME280;63567;49.956;20.130;2023-11-21T07:33:25;96376.91;;;8.22;100.00
75013;BME280;63567;49.956;20.130;2023-11-21T07:35:51;96374.28;;;8.22;100.00
75013;BME280;63567;49.956;20.130;2023-11-21T07:38:17;96382.78;;;8.24;100.00
75013;BME280;63567;49.956;20.130;2023-11-21T07:40:43;96375.09;;;8.22;100.00
75013;BME280;63567;49.956;20.130;2023-11-21T07:43:08;96382.78;;;8.24;100.00
75013;BME280;63567;49.956;20.130;2023-11-21T07:45:34;96379.94;;;8.26;100.00
75013;BME280;63567;49.956;20.130;2023-11-21T07:47:59;96379.13;;;8.25;100.00
75013;BME280;63567;49.956;20.130;2023-11-21T07:50:26;96373.50;;;8.28;100.00
75013;BME280;63567;49.956;20.130;2023-11-21T07:52:51;96381.38;;;8.28;100.00
75013;BME280;63567;49.956;20.130;2023-11-21T07:55:19;96384.81;;;8.29;100.00
75013;BME280;63567;49.956;20.130;2023-11-21T07:57:44;96378.75;;;8.28;100.00
75013;BME280;63567;49.956;20.130;2023-11-21T08:00:10;96381.38;;;8.28;100.00
75013;BME280;63567;49.956;20.130;2023-11-21T08:02:38;96386.63;;;8.28;100.00
75013;BME280;63567;49.956;20.130;2023-11-21T08:05:03;96389.88;;;8.30;100.00
75013;BME280;63567;49.956;20.130;2023-11-21T08:07:29;96387.63;;;8.27;100.00
75013;BME280;63567;49.956;20.130;2023-11-21T08:09:54;96389.25;;;8.28;100.00
75013;BME280;63567;49.956;20.130;2023-11-21T08:12:19;96396.13;;;8.29;100.00
75013;BME280;63567;49.956;20.130;2023-11-21T08:14:45;96397.13;;;8.28;100.00
75013;BME280;63567;49.956;20.130;2023-11-21T08:17:10;96395.13;;;8.30;100.00
75013;BME280;63567;49.956;20.130;2023-11-21T08:19:36;96392.69;;;8.29;100.00
75013;BME280;63567;49.956;20.130;2023-11-21T08:22:03;96392.31;;;8.32;100.00
75013;BME280;63567;49.956;20.130;2023-11-21T08:24:28;96388.69;;;8.33;100.00
75013;BME280;63567;49.956;20.130;2023-11-21T08:26:53;96399.19;;;8.33;100.00
75013;BME280;63567;49.956;20.130;2023-11-21T08:29:19;96393.94;;;8.33;100.00
75013;BME280;63567;49.956;20.130;2023-11-21T08:31:44;96393.72;;;8.34;100.00
75013;BME280;63567;49.956;20.130;2023-11-21T08:34:13;96395.72;;;8.32;100.00
75013;BME280;63567;49.956;20.130;2023-11-21T08:36:42;96400.19;;;8.32;100.00
75013;BME280;63567;49.956;20.130;2023-11-21T08:39:08;96403.44;;;8.34;100.00
75013;BME280;63567;49.956;20.130;2023-11-21T08:41:34;96417.97;;;8.36;100.00
75013;BME280;63567;49.956;20.130;2023-11-21T08:44:02;96406.50;;;8.37;100.00
75013;BME280;63567;49.956;20.130;2023-11-21T08:46:27;96405.66;;;8.37;100.00
75013;BME280;63567;49.956;20.130;2023-11-21T08:48:52;96419.41;;;8.39;100.00
75013;BME280;63567;49.956;20.130;2023-11-21T08:51:18;96413.34;;;8.38;100.00
75013;BME280;63567;49.956;20.130;2023-11-21T08:53:43;96417.63;;;8.39;100.00
75013;BME280;63567;49.956;20.130;2023-11-21T08:56:13;96428.13;;;8.39;100.00
75013;BME280;63567;49.956;20.130;2023-11-21T08:58:41;96424.50;;;8.40;100.00
75013;BME280;63567;49.956;20.130;2023-11-21T09:01:06;96431.53;;;8.40;100.00
75013;BME280;63567;49.956;20.130;2023-11-21T09:03:32;96428.78;;;8.41;100.00
75013;BME280;63567;49.956;20.130;2023-11-21T09:05:59;96426.16;;;8.41;100.00
75013;BME280;63567;49.956;20.130;2023-11-21T09:08:25;96420.91;;;8.41;100.00
75013;BME280;63567;49.956;20.130;2023-11-21T09:10:50;96421.88;;;8.40;100.00
75013;BME280;63567;49.956;20.130;2023-11-21T09:13:15;96420.91;;;8.41;100.00
75013;BME280;63567;49.956;20.130;2023-11-21T09:15:42;96424.31;;;8.42;100.00
75013;BME280;63567;49.956;20.130;2023-11-21T09:18:13;96415.66;;;8.41;100.00
75013;BME280;63567;49.956;20.130;2023-11-21T09:20:40;96418.28;;;8.41;100.00
75013;BME280;63567;49.956;20.130;2023-11-21T09:23:05;96415.25;;;8.45;100.00
75013;BME280;63567;49.956;20.130;2023-11-21T09:25:32;96412.44;;;8.46;100.00
75013;BME280;63567;49.956;20.130;2023-11-21T09:27:57;96416.50;;;8.49;100.00
75013;BME280;63567;49.956;20.130;2023-11-21T09:30:23;96415.31;;;8.51;100.00
75013;BME280;63567;49.956;20.130;2023-11-21T09:32:50;96411.69;;;8.52;100.00
75013;BME280;63567;49.956;20.130;2023-11-21T09:35:15;96412.09;;;8.56;100.00
75013;BME280;63567;49.956;20.130;2023-11-21T09:37:43;96416.38;;;8.57;100.00
75013;BME280;63567;49.956;20.130;2023-11-21T09:40:10;96414.38;;;8.59;100.00
75013;BME280;63567;49.956;20.130;2023-11-21T09:43:25;96423.84;;;8.60;100.00
75013;BME280;63567;49.956;20.130;2023-11-21T09:46:00;96413.53;;;8.58;100.00
75013;BME280;63567;49.956;20.130;2023-11-21T09:48:26;96420.03;;;8.62;100.00
75013;BME280;63567;49.956;20.130;2023-11-21T09:50:53;96418.19;;;8.63;100.00
75013;BME280;63567;49.956;20.130;2023-11-21T09:53:20;96419.84;;;8.64;100.00
75013;BME280;63567;49.956;20.130;2023-11-21T09:55:51;96418.19;;;8.63;100.00
75013;BME280;63567;49.956;20.130;2023-11-21T09:58:17;96418.03;;;8.64;100.00
75013;BME280;63567;49.956;20.130;2023-11-21T10:00:45;96418.66;;;8.67;99.95
75013;BME280;63567;49.956;20.130;2023-11-21T10:03:11;96423.09;;;8.66;100.00
75013;BME280;63567;49.956;20.130;2023-11-21T10:05:38;96426.34;;;8.68;99.97
75013;BME280;63567;49.956;20.130;2023-11-21T10:08:08;96428.78;;;8.70;99.66
75013;BME280;63567;49.956;20.130;2023-11-21T10:10:35;96432.22;;;8.70;100.00
75013;BME280;63567;49.956;20.130;2023-11-21T10:13:03;96430.22;;;8.72;99.79
75013;BME280;63567;49.956;20.130;2023-11-21T10:15:33;96429.38;;;8.72;99.65
75013;BME280;63567;49.956;20.130;2023-11-21T10:18:01;96433.47;;;8.74;100.00
75013;BME280;63567;49.956;20.130;2023-11-21T10:20:28;96428.38;;;8.73;99.80
75013;BME280;63567;49.956;20.130;2023-11-21T10:22:54;96439.34;;;8.76;100.00
75013;BME280;63567;49.956;20.130;2023-11-21T10:25:21;96431.44;;;8.76;100.00
75013;BME280;63567;49.956;20.130;2023-11-21T10:27:49;96432.06;;;8.78;99.56
75013;BME280;63567;49.956;20.130;2023-11-21T10:30:17;96431.06;;;8.79;99.96
75013;BME280;63567;49.956;20.130;2023-11-21T10:32:43;96431.69;;;8.81;100.00
75013;BME280;63567;49.956;20.130;2023-11-21T10:35:09;96428.88;;;8.83;100.00
75013;BME280;63567;49.956;20.130;2023-11-21T10:37:41;96437.38;;;8.85;100.00
75013;BME280;63567;49.956;20.130;2023-11-21T10:40:09;96436.78;;;8.90;100.00
75013;BME280;63567;49.956;20.130;2023-11-21T10:42:38;96428.03;;;8.82;99.80
75013;BME280;63567;49.956;20.130;2023-11-21T10:45:04;96429.28;;;8.87;100.00
75013;BME280;63567;49.956;20.130;2023-11-21T10:47:35;96426.28;;;8.90;100.00
75013;BME280;63567;49.956;20.130;2023-11-21T10:50:01;96425.69;;;8.94;100.00
75013;BME280;63567;49.956;20.130;2023-11-21T10:52:27;96425.94;;;8.99;100.00
75013;BME280;63567;49.956;20.130;2023-11-21T10:54:52;96426.34;;;9.03;100.00
75013;BME280;63567;49.956;20.130;2023-11-21T10:57:20;96420.09;;;9.04;100.00
75013;BME280;63567;49.956;20.130;2023-11-21T10:59:48;96424.78;;;9.09;100.00
75013;BME280;63567;49.956;20.130;2023-11-21T11:02:24;96428.63;;;9.13;100.00
75013;BME280;63567;49.956;20.130;2023-11-21T11:04:54;96425.81;;;9.14;100.00
75013;BME280;63567;49.956;20.130;2023-11-21T11:07:27;96429.06;;;9.16;99.92
75013;BME280;63567;49.956;20.130;2023-11-21T11:09:54;96421.78;;;9.18;99.81
75013;BME280;63567;49.956;20.130;2023-11-21T11:12:20;96425.22;;;9.19;99.74
75013;BME280;63567;49.956;20.130;2023-11-21T11:14:46;96425.22;;;9.19;99.40
75013;BME280;63567;49.956;20.130;2023-11-21T11:17:13;96423.22;;;9.21;99.34
75013;BME280;63567;49.956;20.130;2023-11-21T11:19:39;96425.03;;;9.20;99.16
75013;BME280;63567;49.956;20.130;2023-11-21T11:25:43;96418.97;;;9.20;98.37
75013;BME280;63567;49.956;20.130;2023-11-21T11:28:14;96419.59;;;9.22;99.04
75013;BME280;63567;49.956;20.130;2023-11-21T11:33:42;96424.03;;;9.28;99.10
75013;BME280;63567;49.956;20.130;2023-11-21T11:38:52;96419.25;;;9.38;99.04
75013;BME280;63567;49.956;20.130;2023-11-21T11:41:26;96428.38;;;9.42;99.06
75013;BME280;63567;49.956;20.130;2023-11-21T11:43:53;96426.78;;;9.48;99.28
75013;BME280;63567;49.956;20.130;2023-11-21T11:46:18;96426.38;;;9.51;98.86
75013;BME280;63567;49.956;20.130;2023-11-21T11:48:46;96434.88;;;9.53;98.93
75013;BME280;63567;49.956;20.130;2023-11-21T11:51:14;96439.34;;;9.53;98.21
75013;BME280;63567;49.956;20.130;2023-11-21T11:53:43;96433.28;;;9.52;98.33
75013;BME280;63567;49.956;20.130;2023-11-21T11:56:30;96437.91;;;9.50;97.41
75013;BME280;63567;49.956;20.130;2023-11-21T11:59:02;96443.38;;;9.49;97.24
75013;BME280;63567;49.956;20.130;2023-11-21T12:01:30;96443.38;;;9.49;97.05
75013;BME280;63567;49.956;20.130;2023-11-21T12:06:42;96452.47;;;9.46;96.57
75013;BME280;63567;49.956;20.130;2023-11-21T12:09:17;96447.38;;;9.44;96.41
75013;BME280;63567;49.956;20.130;2023-11-21T12:11:43;96441.50;;;9.36;96.24
75013;BME280;63567;49.956;20.130;2023-11-21T12:14:09;96447.34;;;9.38;96.78
75013;BME280;63567;49.956;20.130;2023-11-21T12:16:35;96445.53;;;9.38;96.29
75013;BME280;63567;49.956;20.130;2023-11-21T12:19:00;96448.16;;;9.38;95.78
75013;BME280;63567;49.956;20.130;2023-11-21T12:21:26;96454.44;;;9.37;96.02
75013;BME280;63567;49.956;20.130;2023-11-21T12:23:51;96450.00;;;9.38;95.89
75013;BME280;63567;49.956;20.130;2023-11-21T12:26:17;96447.34;;;9.38;95.93
75013;BME280;63567;49.956;20.130;2023-11-21T12:28:43;96451.41;;;9.40;96.11
75013;BME280;63567;49.956;20.130;2023-11-21T12:31:08;96448.59;;;9.42;96.32
75013;BME280;63567;49.956;20.130;2023-11-21T12:33:34;96446.41;;;9.45;96.21
75013;BME280;63567;49.956;20.130;2023-11-21T12:36:00;96450.44;;;9.48;96.17
75013;BME280;63567;49.956;20.130;2023-11-21T12:38:33;96448.03;;;9.53;96.68
75013;BME280;63567;49.956;20.130;2023-11-21T12:40:59;96448.84;;;9.60;96.93
75013;BME280;63567;49.956;20.130;2023-11-21T12:43:24;96449.09;;;9.65;96.73
75013;BME280;63567;49.956;20.130;2023-11-21T12:45:49;96443.25;;;9.70;97.05
75013;BME280;63567;49.956;20.130;2023-11-21T12:48:15;96445.09;;;9.76;97.11
75013;BME280;63567;49.956;20.130;2023-11-21T12:50:42;96447.94;;;9.81;96.83
75013;BME280;63567;49.956;20.130;2023-11-21T12:53:11;96448.13;;;9.86;96.87
75013;BME280;63567;49.956;20.130;2023-11-21T12:55:43;96443.31;;;9.90;96.61
75013;BME280;63567;49.956;20.130;2023-11-21T12:58:15;96447.34;;;9.93;96.25
75013;BME280;63567;49.956;20.130;2023-11-21T13:00:48;96447.59;;;9.98;96.22